createdAt,value
2018-12-02T00:04:56.102Z,10.20
2018-12-02T00:10:07.181Z,10.20
2018-12-02T00:15:27.145Z,10.20
2018-12-02T00:20:44.044Z,10.20
2018-12-02T00:26:03.480Z,10.30
2018-12-02T00:31:20.167Z,10.30
2018-12-02T00:36:34.822Z,10.30
2018-12-02T00:41:53.489Z,10.30
2018-12-02T00:47:04.633Z,10.30
2018-12-02T00:52:22.391Z,10.30
2018-12-02T00:57:35.621Z,10.20
2018-12-02T01:02:51.493Z,10.00
2018-12-02T01:08:14.711Z,9.80
2018-12-02T01:13:33.670Z,9.70
2018-12-02T01:18:53.257Z,9.70
2018-12-02T01:24:18.167Z,9.70
2018-12-02T01:29:40.245Z,9.80
2018-12-02T01:35:01.308Z,9.90
2018-12-02T01:40:15.475Z,9.90
2018-12-02T01:45:32.799Z,10.00
2018-12-02T01:56:07.354Z,10.10
2018-12-02T02:01:22.274Z,10.20
2018-12-02T02:06:35.734Z,10.20
2018-12-02T02:11:53.892Z,10.20
2018-12-02T02:17:07.181Z,10.10
2018-12-02T02:22:27.177Z,10.10
2018-12-02T02:27:43.923Z,10.10
2018-12-02T02:33:00.384Z,10.00
2018-12-02T02:38:17.666Z,10.10
2018-12-02T02:43:34.630Z,10.00
2018-12-02T02:59:14.254Z,9.90
2018-12-02T03:04:28.922Z,9.50
2018-12-02T03:09:49.218Z,9.40
2018-12-02T03:15:05.271Z,9.30
2018-12-02T03:20:27.659Z,9.20
2018-12-02T03:25:46.727Z,9.10
2018-12-02T03:36:19.839Z,9.00
2018-12-02T03:41:35.008Z,8.90
2018-12-02T03:57:19.834Z,8.80
2018-12-02T04:02:40.257Z,8.80
2018-12-02T04:07:58.247Z,8.80
2018-12-02T04:13:16.357Z,8.70
2018-12-02T04:18:38.543Z,8.70
2018-12-02T04:24:00.670Z,8.70
2018-12-02T04:29:16.764Z,8.70
2018-12-02T04:45:02.456Z,8.70
2018-12-02T04:50:29.483Z,8.80
2018-12-02T04:55:44.797Z,8.80
2018-12-02T05:01:01.169Z,8.80
2018-12-02T05:16:50.705Z,8.80
2018-12-02T05:22:02.955Z,8.80
2018-12-02T05:27:20.753Z,8.80
2018-12-02T05:32:45.201Z,8.80
2018-12-02T05:38:02.873Z,8.80
2018-12-02T05:48:39.333Z,8.80
2018-12-02T05:53:52.254Z,8.80
2018-12-02T05:59:08.760Z,8.80
2018-12-02T06:14:52.281Z,8.80
2018-12-02T06:20:13.746Z,8.80
2018-12-02T06:25:35.913Z,8.90
2018-12-02T06:30:56.626Z,8.90
2018-12-02T06:41:29.693Z,8.90
2018-12-02T06:46:50.059Z,8.90
2018-12-02T06:52:04.805Z,8.90
2018-12-02T07:02:42.401Z,9.00
2018-12-02T07:08:01.762Z,9.10
2018-12-02T07:13:21.144Z,9.10
2018-12-02T07:18:34.168Z,9.10
2018-12-02T07:23:56.231Z,9.20
2018-12-02T07:29:14.174Z,9.30
2018-12-02T07:34:27.612Z,9.40
2018-12-02T07:39:47.296Z,9.50
2018-12-02T07:45:01.605Z,9.50
2018-12-02T07:50:17.375Z,9.50
2018-12-02T07:55:30.572Z,9.50
2018-12-02T08:00:42.416Z,9.60
2018-12-02T08:05:56.922Z,9.60
2018-12-02T08:11:09.386Z,9.70
2018-12-02T08:16:22.567Z,9.70
2018-12-02T08:21:40.485Z,9.80
2018-12-02T08:26:59.686Z,9.80
2018-12-02T08:32:09.946Z,9.80
2018-12-02T08:37:21.425Z,9.90
2018-12-02T08:42:35.362Z,9.90
2018-12-02T08:47:45.932Z,10.00
2018-12-02T08:53:01.162Z,10.00
2018-12-02T08:58:14.535Z,10.00
2018-12-02T09:03:24.519Z,10.10
2018-12-02T09:08:33.720Z,10.20
2018-12-02T09:13:39.691Z,10.20
2018-12-02T09:18:57.537Z,10.30
2018-12-02T09:24:07.358Z,10.30
2018-12-02T09:29:15.553Z,10.40
2018-12-02T09:34:31.912Z,10.40
2018-12-02T09:39:51.918Z,10.40
2018-12-02T09:45:07.254Z,10.50
2018-12-02T09:50:19.076Z,10.50
2018-12-02T09:55:26.129Z,10.60
2018-12-02T10:00:35.150Z,10.60
2018-12-02T10:05:41.138Z,10.60
2018-12-02T10:10:51.117Z,10.60
2018-12-02T10:16:04.484Z,10.70
2018-12-02T10:21:10.069Z,10.70
2018-12-02T10:26:18.627Z,10.80
2018-12-02T10:31:20.681Z,11.00
2018-12-02T10:36:24.254Z,11.30
2018-12-02T10:41:27.762Z,11.50
2018-12-02T10:46:30.374Z,11.70
2018-12-02T10:51:33.097Z,11.80
2018-12-02T10:56:35.350Z,11.90
2018-12-02T11:01:38.159Z,12.00
2018-12-02T11:06:38.932Z,12.10
2018-12-02T11:11:39.396Z,12.10
2018-12-02T11:16:40.527Z,12.20
2018-12-02T11:21:39.544Z,12.30
2018-12-02T11:26:40.931Z,12.50
2018-12-02T11:31:38.685Z,12.50
2018-12-02T11:36:36.615Z,12.60
2018-12-02T11:41:38.235Z,12.70
2018-12-02T11:46:36.680Z,12.70
2018-12-02T11:51:34.462Z,12.80
2018-12-02T11:56:33.014Z,12.80
2018-12-02T12:01:34.677Z,12.80
2018-12-02T12:06:35.119Z,12.90
2018-12-02T12:11:31.663Z,12.80
2018-12-02T12:16:30.859Z,12.90
2018-12-02T12:21:29.240Z,12.90
2018-12-02T12:26:27.498Z,12.90
2018-12-02T12:31:26.448Z,13.00
2018-12-02T12:36:22.083Z,13.00
2018-12-02T12:41:21.914Z,13.00
2018-12-02T12:46:17.408Z,13.00
2018-12-02T12:51:16.300Z,13.00
2018-12-02T12:56:12.027Z,13.10
2018-12-02T13:01:11.034Z,13.10
2018-12-02T13:06:09.112Z,13.20
2018-12-02T13:11:06.967Z,13.20
2018-12-02T13:16:03.580Z,13.20
2018-12-02T13:21:01.147Z,13.30
2018-12-02T13:25:57.259Z,13.30
2018-12-02T13:36:19.663Z,13.30
2018-12-02T13:41:15.490Z,13.30
2018-12-02T13:46:11.336Z,13.30
2018-12-02T13:51:10.069Z,13.30
2018-12-02T13:56:08.917Z,13.30
2018-12-02T14:01:04.905Z,13.30
2018-12-02T14:06:03.756Z,13.20
2018-12-02T14:11:02.263Z,13.20
2018-12-02T14:16:02.495Z,13.10
2018-12-02T14:21:00.618Z,13.10
2018-12-02T14:25:58.779Z,13.10
2018-12-02T14:30:57.520Z,13.10
2018-12-02T14:35:56.392Z,13.10
2018-12-02T14:41:05.758Z,13.10
2018-12-02T14:46:02.565Z,13.00
2018-12-02T14:51:01.238Z,13.00
2018-12-02T14:56:01.329Z,12.90
2018-12-02T15:01:05.261Z,12.90
2018-12-02T15:06:02.428Z,12.90
2018-12-02T15:11:03.324Z,12.80
2018-12-02T15:16:02.493Z,12.80
2018-12-02T15:21:03.575Z,12.80
2018-12-02T15:26:04.359Z,12.80
2018-12-02T15:31:03.434Z,12.80
2018-12-02T15:36:04.655Z,12.80
2018-12-02T15:41:03.773Z,12.80
2018-12-02T15:46:01.743Z,12.80
2018-12-02T15:51:01.148Z,12.90
2018-12-02T15:56:01.953Z,12.90
2018-12-02T16:00:59.583Z,12.90
2018-12-02T16:06:04.363Z,12.90
2018-12-02T16:11:00.955Z,12.90
2018-12-02T16:16:02.353Z,12.80
2018-12-02T16:21:03.052Z,12.80
2018-12-02T16:26:03.432Z,12.80
2018-12-02T16:31:04.131Z,12.80
2018-12-02T16:36:03.033Z,12.80
2018-12-02T16:41:00.896Z,12.90
2018-12-02T16:46:01.640Z,12.90
2018-12-02T16:51:01.976Z,12.90
2018-12-02T16:56:03.771Z,13.00
2018-12-02T17:01:03.183Z,13.00
2018-12-02T17:06:03.380Z,13.00
2018-12-02T17:11:09.823Z,12.90
2018-12-02T17:16:07.106Z,12.90
2018-12-02T17:21:16.749Z,12.90
2018-12-02T17:26:14.048Z,12.90
2018-12-02T17:31:12.215Z,13.00
2018-12-02T17:36:10.750Z,13.00
2018-12-02T17:41:10.230Z,13.10
2018-12-02T17:46:09.135Z,13.20
2018-12-02T17:51:05.536Z,13.30
2018-12-02T17:56:06.361Z,13.30
2018-12-02T18:01:02.344Z,13.30
2018-12-02T18:06:02.062Z,13.30
2018-12-02T18:11:01.738Z,13.30
2018-12-02T18:16:00.617Z,13.30
2018-12-02T18:20:59.817Z,13.30
2018-12-02T18:25:56.909Z,13.30
2018-12-02T18:30:54.688Z,13.20
2018-12-02T18:35:54.131Z,13.20
2018-12-02T18:40:52.265Z,13.20
2018-12-02T18:45:52.037Z,13.30
2018-12-02T18:50:50.139Z,13.30
2018-12-02T18:55:50.594Z,13.30
2018-12-02T19:00:46.597Z,13.20
2018-12-02T19:05:46.435Z,13.30
2018-12-02T19:10:44.510Z,13.20
2018-12-02T19:15:43.087Z,13.20
2018-12-02T19:20:42.541Z,13.20
2018-12-02T19:25:40.657Z,13.20
2018-12-02T19:30:39.084Z,13.30
2018-12-02T19:35:38.651Z,13.30
2018-12-02T19:40:34.871Z,13.30
2018-12-02T19:45:33.186Z,13.30
2018-12-02T19:50:34.071Z,13.30
2018-12-02T19:55:34.236Z,13.30
2018-12-02T20:00:33.245Z,13.20
2018-12-02T20:05:31.765Z,13.10
2018-12-02T20:10:33.167Z,13.10
2018-12-02T20:15:34.025Z,12.90
2018-12-02T20:20:37.731Z,12.80
2018-12-02T20:25:37.922Z,12.70
2018-12-02T20:30:42.067Z,12.60
2018-12-02T20:35:49.622Z,12.50
2018-12-02T20:40:51.654Z,12.40
2018-12-02T20:45:51.360Z,12.40
2018-12-02T20:50:52.332Z,12.40
2018-12-02T20:55:55.661Z,12.40
2018-12-02T21:00:58.098Z,12.40
2018-12-02T21:06:00.667Z,12.40
2018-12-02T21:11:03.512Z,12.40
2018-12-02T21:16:09.312Z,12.40
2018-12-02T21:21:16.635Z,12.40
2018-12-02T21:26:16.874Z,12.40
2018-12-02T21:31:17.897Z,12.40
2018-12-02T21:36:20.868Z,12.40
2018-12-02T21:41:24.683Z,12.40
2018-12-02T21:46:25.240Z,12.40
2018-12-02T21:51:26.242Z,12.40
2018-12-02T21:56:27.303Z,12.40
2018-12-02T22:01:31.448Z,12.40
2018-12-02T22:06:33.778Z,12.50
2018-12-02T22:11:34.648Z,12.50
2018-12-02T22:16:35.467Z,12.50
2018-12-02T22:21:39.394Z,12.50
2018-12-02T22:26:45.773Z,12.40
2018-12-02T22:31:54.130Z,12.50
2018-12-02T22:37:02.018Z,12.50
2018-12-02T22:42:09.147Z,12.50
2018-12-02T22:47:17.754Z,12.50
2018-12-02T22:52:17.800Z,12.50
2018-12-02T22:57:18.664Z,12.50
2018-12-02T23:02:18.568Z,12.50
2018-12-02T23:07:19.045Z,12.50
2018-12-02T23:12:23.162Z,12.50
2018-12-02T23:17:23.810Z,12.60
2018-12-02T23:22:24.354Z,12.60
2018-12-02T23:27:31.579Z,12.60
2018-12-02T23:32:31.220Z,12.60
2018-12-02T23:37:31.331Z,12.60
2018-12-02T23:42:38.240Z,12.60
2018-12-02T23:47:37.812Z,12.60
2018-12-02T23:52:38.489Z,12.60
2018-12-02T23:57:38.520Z,12.60
